sensor_id;sensor_type;location;lat;lon;timestamp;P1;durP1;ratioP1;P2;durP2;ratioP2
34317;SDS011;20582;52.196;20.952;2024-03-23T00:55:48;56.72;;;24.85;;
34317;SDS011;20582;52.196;20.952;2024-03-23T00:58:14;63.53;;;26.60;;
34317;SDS011;20582;52.196;20.952;2024-03-23T01:00:40;60.70;;;26.13;;
34317;SDS011;20582;52.196;20.952;2024-03-23T01:03:06;67.22;;;26.92;;
34317;SDS011;20582;52.196;20.952;2024-03-23T01:05:32;59.53;;;25.42;;
34317;SDS011;20582;52.196;20.952;2024-03-23T01:07:58;80.13;;;28.20;;
34317;SDS011;20582;52.196;20.952;2024-03-23T01:10:24;64.30;;;26.42;;
34317;SDS011;20582;52.196;20.952;2024-03-23T01:12:50;75.40;;;28.85;;
34317;SDS011;20582;52.196;20.952;2024-03-23T01:15:16;64.90;;;27.65;;
34317;SDS011;20582;52.196;20.952;2024-03-23T01:17:42;64.03;;;27.20;;
34317;SDS011;20582;52.196;20.952;2024-03-23T01:20:08;63.33;;;29.27;;
34317;SDS011;20582;52.196;20.952;2024-03-23T01:22:34;71.03;;;28.00;;
34317;SDS011;20582;52.196;20.952;2024-03-23T01:25:00;70.55;;;27.75;;
34317;SDS011;20582;52.196;20.952;2024-03-23T01:27:26;68.32;;;26.50;;
34317;SDS011;20582;52.196;20.952;2024-03-23T01:29:52;73.80;;;29.73;;
34317;SDS011;20582;52.196;20.952;2024-03-23T01:32:18;68.47;;;27.42;;
34317;SDS011;20582;52.196;20.952;2024-03-23T01:34:44;73.72;;;28.80;;
34317;SDS011;20582;52.196;20.952;2024-03-23T01:37:10;74.88;;;29.65;;
34317;SDS011;20582;52.196;20.952;2024-03-23T01:39:36;74.03;;;28.85;;
34317;SDS011;20582;52.196;20.952;2024-03-23T01:42:02;83.78;;;30.33;;
34317;SDS011;20582;52.196;20.952;2024-03-23T01:44:28;74.50;;;28.80;;
34317;SDS011;20582;52.196;20.952;2024-03-23T01:46:54;77.47;;;30.17;;
34317;SDS011;20582;52.196;20.952;2024-03-23T01:49:20;81.05;;;31.88;;
34317;SDS011;20582;52.196;20.952;2024-03-23T01:51:46;82.22;;;31.10;;
34317;SDS011;20582;52.196;20.952;2024-03-23T01:54:12;81.25;;;30.38;;
34317;SDS011;20582;52.196;20.952;2024-03-23T01:56:38;89.78;;;31.38;;
34317;SDS011;20582;52.196;20.952;2024-03-23T01:59:05;84.85;;;31.65;;
34317;SDS011;20582;52.196;20.952;2024-03-23T02:01:31;81.70;;;31.45;;
34317;SDS011;20582;52.196;20.952;2024-03-23T02:03:57;82.03;;;30.70;;
34317;SDS011;20582;52.196;20.952;2024-03-23T02:06:24;80.00;;;32.20;;
34317;SDS011;20582;52.196;20.952;2024-03-23T02:08:50;81.22;;;31.67;;
34317;SDS011;20582;52.196;20.952;2024-03-23T02:11:16;91.22;;;32.45;;
34317;SDS011;20582;52.196;20.952;2024-03-23T02:13:42;81.32;;;32.90;;
34317;SDS011;20582;52.196;20.952;2024-03-23T02:16:08;87.88;;;31.90;;
34317;SDS011;20582;52.196;20.952;2024-03-23T02:18:34;85.50;;;31.75;;
34317;SDS011;20582;52.196;20.952;2024-03-23T02:21:00;91.03;;;33.13;;
34317;SDS011;20582;52.196;20.952;2024-03-23T02:23:26;91.50;;;33.15;;
34317;SDS011;20582;52.196;20.952;2024-03-23T02:25:52;88.30;;;33.00;;
34317;SDS011;20582;52.196;20.952;2024-03-23T02:28:18;91.85;;;35.17;;
34317;SDS011;20582;52.196;20.952;2024-03-23T02:30:44;91.72;;;35.92;;
34317;SDS011;20582;52.196;20.952;2024-03-23T02:33:10;99.28;;;34.28;;
34317;SDS011;20582;52.196;20.952;2024-03-23T02:35:36;87.53;;;32.17;;
34317;SDS011;20582;52.196;20.952;2024-03-23T02:38:03;92.13;;;34.45;;
34317;SDS011;20582;52.196;20.952;2024-03-23T02:40:29;98.47;;;35.17;;
34317;SDS011;20582;52.196;20.952;2024-03-23T02:42:55;98.25;;;36.65;;
34317;SDS011;20582;52.196;20.952;2024-03-23T02:45:21;96.80;;;35.15;;
34317;SDS011;20582;52.196;20.952;2024-03-23T02:47:47;100.25;;;36.22;;
34317;SDS011;20582;52.196;20.952;2024-03-23T02:50:16;93.53;;;34.58;;
34317;SDS011;20582;52.196;20.952;2024-03-23T02:52:42;104.20;;;36.55;;
34317;SDS011;20582;52.196;20.952;2024-03-23T02:55:08;103.95;;;37.13;;
34317;SDS011;20582;52.196;20.952;2024-03-23T02:57:34;91.57;;;35.20;;
34317;SDS011;20582;52.196;20.952;2024-03-23T03:00:00;104.13;;;37.55;;
34317;SDS011;20582;52.196;20.952;2024-03-23T03:02:26;106.15;;;37.03;;
34317;SDS011;20582;52.196;20.952;2024-03-23T03:04:52;108.03;;;37.80;;
34317;SDS011;20582;52.196;20.952;2024-03-23T03:07:18;102.15;;;36.78;;
34317;SDS011;20582;52.196;20.952;2024-03-23T03:09:44;107.47;;;37.33;;
34317;SDS011;20582;52.196;20.952;2024-03-23T03:12:10;102.47;;;35.15;;
34317;SDS011;20582;52.196;20.952;2024-03-23T03:14:36;106.78;;;37.15;;
34317;SDS011;20582;52.196;20.952;2024-03-23T03:17:02;106.35;;;36.10;;
34317;SDS011;20582;52.196;20.952;2024-03-23T03:19:28;102.03;;;38.10;;
34317;SDS011;20582;52.196;20.952;2024-03-23T03:21:54;101.72;;;36.17;;
34317;SDS011;20582;52.196;20.952;2024-03-23T03:24:21;104.95;;;35.95;;
34317;SDS011;20582;52.196;20.952;2024-03-23T03:26:47;110.22;;;36.80;;
34317;SDS011;20582;52.196;20.952;2024-03-23T03:29:14;101.30;;;35.33;;
34317;SDS011;20582;52.196;20.952;2024-03-23T03:31:40;111.00;;;37.75;;
34317;SDS011;20582;52.196;20.952;2024-03-23T03:34:06;106.70;;;37.15;;
34317;SDS011;20582;52.196;20.952;2024-03-23T03:36:32;107.90;;;37.35;;
34317;SDS011;20582;52.196;20.952;2024-03-23T03:38:58;103.35;;;37.20;;
34317;SDS011;20582;52.196;20.952;2024-03-23T03:41:24;105.30;;;35.83;;
34317;SDS011;20582;52.196;20.952;2024-03-23T03:43:50;99.85;;;35.70;;
34317;SDS011;20582;52.196;20.952;2024-03-23T03:46:16;102.40;;;37.15;;
34317;SDS011;20582;52.196;20.952;2024-03-23T03:48:42;110.70;;;37.80;;
34317;SDS011;20582;52.196;20.952;2024-03-23T03:51:10;99.55;;;36.45;;
34317;SDS011;20582;52.196;20.952;2024-03-23T03:53:36;108.20;;;37.40;;
34317;SDS011;20582;52.196;20.952;2024-03-23T03:56:02;94.68;;;36.28;;
34317;SDS011;20582;52.196;20.952;2024-03-23T03:58:28;99.85;;;34.97;;
34317;SDS011;20582;52.196;20.952;2024-03-23T04:00:54;105.53;;;37.67;;
34317;SDS011;20582;52.196;20.952;2024-03-23T04:03:20;113.88;;;37.47;;
34317;SDS011;20582;52.196;20.952;2024-03-23T04:05:51;100.90;;;34.75;;
34317;SDS011;20582;52.196;20.952;2024-03-23T04:08:17;100.80;;;35.53;;
34317;SDS011;20582;52.196;20.952;2024-03-23T04:10:43;100.53;;;34.08;;
34317;SDS011;20582;52.196;20.952;2024-03-23T04:13:10;100.88;;;35.83;;
34317;SDS011;20582;52.196;20.952;2024-03-23T04:15:36;94.30;;;35.35;;
34317;SDS011;20582;52.196;20.952;2024-03-23T04:18:02;103.38;;;36.60;;
34317;SDS011;20582;52.196;20.952;2024-03-23T04:20:28;94.15;;;35.90;;
34317;SDS011;20582;52.196;20.952;2024-03-23T04:22:54;101.85;;;37.53;;
34317;SDS011;20582;52.196;20.952;2024-03-23T04:25:20;98.80;;;36.20;;
34317;SDS011;20582;52.196;20.952;2024-03-23T04:27:46;101.43;;;37.58;;
34317;SDS011;20582;52.196;20.952;2024-03-23T04:30:12;103.88;;;36.53;;
34317;SDS011;20582;52.196;20.952;2024-03-23T04:32:39;101.20;;;37.45;;
34317;SDS011;20582;52.196;20.952;2024-03-23T04:35:05;103.00;;;34.47;;
34317;SDS011;20582;52.196;20.952;2024-03-23T04:37:34;102.95;;;37.55;;
34317;SDS011;20582;52.196;20.952;2024-03-23T04:40:03;108.75;;;38.90;;
34317;SDS011;20582;52.196;20.952;2024-03-23T04:42:30;112.15;;;38.05;;
34317;SDS011;20582;52.196;20.952;2024-03-23T04:44:56;107.00;;;37.95;;
34317;SDS011;20582;52.196;20.952;2024-03-23T04:47:22;108.63;;;39.17;;
34317;SDS011;20582;52.196;20.952;2024-03-23T04:49:48;99.32;;;37.45;;
34317;SDS011;20582;52.196;20.952;2024-03-23T04:52:14;103.40;;;38.25;;
34317;SDS011;20582;52.196;20.952;2024-03-23T04:54:40;105.07;;;37.00;;
34317;SDS011;20582;52.196;20.952;2024-03-23T04:57:06;101.00;;;38.47;;
34317;SDS011;20582;52.196;20.952;2024-03-23T04:59:32;96.10;;;36.65;;
34317;SDS011;20582;52.196;20.952;2024-03-23T05:01:58;102.82;;;39.10;;
34317;SDS011;20582;52.196;20.952;2024-03-23T05:04:25;100.05;;;38.42;;
34317;SDS011;20582;52.196;20.952;2024-03-23T05:06:50;95.15;;;36.67;;
34317;SDS011;20582;52.196;20.952;2024-03-23T05:09:17;106.97;;;38.38;;
34317;SDS011;20582;52.196;20.952;2024-03-23T05:11:43;110.82;;;39.78;;
34317;SDS011;20582;52.196;20.952;2024-03-23T05:14:09;98.78;;;36.85;;
34317;SDS011;20582;52.196;20.952;2024-03-23T05:16:34;98.57;;;37.15;;
34317;SDS011;20582;52.196;20.952;2024-03-23T05:19:00;98.72;;;40.95;;
34317;SDS011;20582;52.196;20.952;2024-03-23T05:21:27;109.78;;;39.10;;
34317;SDS011;20582;52.196;20.952;2024-03-23T05:23:56;105.55;;;41.03;;
34317;SDS011;20582;52.196;20.952;2024-03-23T05:26:22;105.03;;;38.90;;
34317;SDS011;20582;52.196;20.952;2024-03-23T05:28:48;105.65;;;41.35;;
34317;SDS011;20582;52.196;20.952;2024-03-23T05:31:23;105.13;;;41.30;;
34317;SDS011;20582;52.196;20.952;2024-03-23T05:33:50;106.88;;;39.95;;
34317;SDS011;20582;52.196;20.952;2024-03-23T05:36:16;101.55;;;39.53;;
34317;SDS011;20582;52.196;20.952;2024-03-23T05:38:42;107.65;;;40.58;;
34317;SDS011;20582;52.196;20.952;2024-03-23T05:41:08;109.22;;;40.08;;
34317;SDS011;20582;52.196;20.952;2024-03-23T05:43:34;103.40;;;38.45;;
34317;SDS011;20582;52.196;20.952;2024-03-23T05:46:00;115.72;;;42.33;;
34317;SDS011;20582;52.196;20.952;2024-03-23T05:48:32;107.72;;;42.03;;
34317;SDS011;20582;52.196;20.952;2024-03-23T05:50:58;97.57;;;39.03;;
34317;SDS011;20582;52.196;20.952;2024-03-23T05:53:25;108.15;;;41.22;;
34317;SDS011;20582;52.196;20.952;2024-03-23T05:55:51;106.95;;;41.28;;
34317;SDS011;20582;52.196;20.952;2024-03-23T05:58:19;106.70;;;39.22;;
34317;SDS011;20582;52.196;20.952;2024-03-23T06:00:45;104.85;;;39.00;;
34317;SDS011;20582;52.196;20.952;2024-03-23T06:03:11;95.63;;;38.78;;
34317;SDS011;20582;52.196;20.952;2024-03-23T06:05:37;101.15;;;41.08;;
34317;SDS011;20582;52.196;20.952;2024-03-23T06:08:04;93.90;;;38.38;;
34317;SDS011;20582;52.196;20.952;2024-03-23T06:10:30;94.43;;;38.78;;
34317;SDS011;20582;52.196;20.952;2024-03-23T06:12:59;94.47;;;40.03;;
34317;SDS011;20582;52.196;20.952;2024-03-23T06:15:25;96.25;;;39.88;;
34317;SDS011;20582;52.196;20.952;2024-03-23T06:17:52;100.50;;;40.10;;
34317;SDS011;20582;52.196;20.952;2024-03-23T06:20:18;94.03;;;37.65;;
34317;SDS011;20582;52.196;20.952;2024-03-23T06:22:44;90.53;;;38.35;;
34317;SDS011;20582;52.196;20.952;2024-03-23T06:25:10;90.38;;;38.20;;
34317;SDS011;20582;52.196;20.952;2024-03-23T06:27:40;93.55;;;37.78;;
34317;SDS011;20582;52.196;20.952;2024-03-23T06:30:06;93.35;;;38.22;;
34317;SDS011;20582;52.196;20.952;2024-03-23T06:32:32;105.13;;;40.63;;
34317;SDS011;20582;52.196;20.952;2024-03-23T06:34:58;87.45;;;38.13;;
34317;SDS011;20582;52.196;20.952;2024-03-23T06:37:24;85.18;;;38.05;;
34317;SDS011;20582;52.196;20.952;2024-03-23T06:39:50;81.22;;;36.28;;
34317;SDS011;20582;52.196;20.952;2024-03-23T06:42:16;81.97;;;36.92;;
34317;SDS011;20582;52.196;20.952;2024-03-23T06:44:43;82.82;;;34.25;;
34317;SDS011;20582;52.196;20.952;2024-03-23T06:47:09;74.50;;;34.20;;
34317;SDS011;20582;52.196;20.952;2024-03-23T06:49:35;73.65;;;35.17;;
34317;SDS011;20582;52.196;20.952;2024-03-23T06:52:01;76.55;;;34.15;;
34317;SDS011;20582;52.196;20.952;2024-03-23T06:54:33;78.47;;;33.85;;
34317;SDS011;20582;52.196;20.952;2024-03-23T06:56:59;76.45;;;33.47;;
34317;SDS011;20582;52.196;20.952;2024-03-23T06:59:25;75.70;;;34.15;;
34317;SDS011;20582;52.196;20.952;2024-03-23T07:01:51;71.85;;;33.15;;
34317;SDS011;20582;52.196;20.952;2024-03-23T07:04:17;118.28;;;36.72;;
34317;SDS011;20582;52.196;20.952;2024-03-23T07:06:44;92.13;;;34.28;;
34317;SDS011;20582;52.196;20.952;2024-03-23T07:09:10;77.57;;;34.33;;
34317;SDS011;20582;52.196;20.952;2024-03-23T07:11:36;77.28;;;33.10;;
34317;SDS011;20582;52.196;20.952;2024-03-23T07:14:04;76.47;;;32.30;;
34317;SDS011;20582;52.196;20.952;2024-03-23T07:16:31;105.40;;;35.90;;
34317;SDS011;20582;52.196;20.952;2024-03-23T07:18:57;78.13;;;34.53;;
34317;SDS011;20582;52.196;20.952;2024-03-23T07:21:23;85.63;;;33.38;;
34317;SDS011;20582;52.196;20.952;2024-03-23T07:23:49;88.20;;;34.55;;
34317;SDS011;20582;52.196;20.952;2024-03-23T07:26:15;72.50;;;29.77;;
34317;SDS011;20582;52.196;20.952;2024-03-23T07:28:43;73.00;;;32.47;;
34317;SDS011;20582;52.196;20.952;2024-03-23T07:31:10;74.47;;;32.47;;
34317;SDS011;20582;52.196;20.952;2024-03-23T07:33:43;79.70;;;32.20;;
34317;SDS011;20582;52.196;20.952;2024-03-23T07:36:09;82.03;;;31.58;;
34317;SDS011;20582;52.196;20.952;2024-03-23T07:38:35;72.93;;;32.33;;
34317;SDS011;20582;52.196;20.952;2024-03-23T07:41:17;76.88;;;33.08;;
34317;SDS011;20582;52.196;20.952;2024-03-23T07:43:44;73.20;;;32.08;;
34317;SDS011;20582;52.196;20.952;2024-03-23T07:46:10;77.78;;;31.15;;
34317;SDS011;20582;52.196;20.952;2024-03-23T07:48:37;68.78;;;30.85;;
34317;SDS011;20582;52.196;20.952;2024-03-23T07:53:29;71.28;;;31.88;;
34317;SDS011;20582;52.196;20.952;2024-03-23T07:55:56;72.57;;;32.63;;
34317;SDS011;20582;52.196;20.952;2024-03-23T07:58:23;76.82;;;33.85;;
34317;SDS011;20582;52.196;20.952;2024-03-23T08:00:49;75.45;;;31.98;;
34317;SDS011;20582;52.196;20.952;2024-03-23T08:03:15;76.28;;;32.08;;
34317;SDS011;20582;52.196;20.952;2024-03-23T08:05:41;68.32;;;32.08;;
34317;SDS011;20582;52.196;20.952;2024-03-23T08:08:07;66.43;;;31.45;;
34317;SDS011;20582;52.196;20.952;2024-03-23T08:10:33;65.13;;;31.33;;
34317;SDS011;20582;52.196;20.952;2024-03-23T08:12:59;70.97;;;31.33;;
34317;SDS011;20582;52.196;20.952;2024-03-23T08:15:25;64.88;;;30.83;;
34317;SDS011;20582;52.196;20.952;2024-03-23T08:17:51;60.75;;;29.90;;
34317;SDS011;20582;52.196;20.952;2024-03-23T08:20:17;60.60;;;31.30;;
34317;SDS011;20582;52.196;20.952;2024-03-23T08:22:43;58.58;;;30.02;;
34317;SDS011;20582;52.196;20.952;2024-03-23T08:25:09;60.30;;;29.85;;
34317;SDS011;20582;52.196;20.952;2024-03-23T08:27:35;59.60;;;29.38;;
34317;SDS011;20582;52.196;20.952;2024-03-23T08:30:01;59.88;;;28.38;;
34317;SDS011;20582;52.196;20.952;2024-03-23T08:32:28;57.75;;;27.98;;
34317;SDS011;20582;52.196;20.952;2024-03-23T08:34:54;62.50;;;28.52;;
34317;SDS011;20582;52.196;20.952;2024-03-23T08:37:20;55.95;;;28.35;;
34317;SDS011;20582;52.196;20.952;2024-03-23T08:39:46;62.65;;;28.95;;
34317;SDS011;20582;52.196;20.952;2024-03-23T08:42:12;49.63;;;27.27;;
34317;SDS011;20582;52.196;20.952;2024-03-23T08:44:39;50.95;;;24.00;;
34317;SDS011;20582;52.196;20.952;2024-03-23T08:47:05;43.40;;;24.67;;
34317;SDS011;20582;52.196;20.952;2024-03-23T08:49:31;39.95;;;21.63;;
34317;SDS011;20582;52.196;20.952;2024-03-23T08:51:57;34.15;;;20.40;;
34317;SDS011;20582;52.196;20.952;2024-03-23T08:54:23;30.77;;;17.40;;
34317;SDS011;20582;52.196;20.952;2024-03-23T08:56:51;29.55;;;17.33;;
34317;SDS011;20582;52.196;20.952;2024-03-23T08:59:17;30.30;;;17.77;;
34317;SDS011;20582;52.196;20.952;2024-03-23T09:01:45;30.75;;;18.00;;
34317;SDS011;20582;52.196;20.952;2024-03-23T09:04:13;33.97;;;17.65;;
34317;SDS011;20582;52.196;20.952;2024-03-23T09:06:39;29.48;;;17.23;;
34317;SDS011;20582;52.196;20.952;2024-03-23T09:09:07;31.23;;;17.25;;
34317;SDS011;20582;52.196;20.952;2024-03-23T09:11:33;29.85;;;16.52;;
34317;SDS011;20582;52.196;20.952;2024-03-23T09:14:00;30.35;;;16.25;;
34317;SDS011;20582;52.196;20.952;2024-03-23T09:16:28;26.60;;;16.17;;
34317;SDS011;20582;52.196;20.952;2024-03-23T09:18:54;28.05;;;15.75;;
34317;SDS011;20582;52.196;20.952;2024-03-23T09:21:20;25.77;;;14.80;;
34317;SDS011;20582;52.196;20.952;2024-03-23T09:23:46;23.08;;;13.95;;
34317;SDS011;20582;52.196;20.952;2024-03-23T09:26:12;23.63;;;14.07;;
34317;SDS011;20582;52.196;20.952;2024-03-23T09:28:38;25.25;;;14.05;;
34317;SDS011;20582;52.196;20.952;2024-03-23T09:31:05;24.15;;;14.70;;
34317;SDS011;20582;52.196;20.952;2024-03-23T09:33:32;24.13;;;13.77;;
34317;SDS011;20582;52.196;20.952;2024-03-23T09:35:58;21.65;;;13.88;;
34317;SDS011;20582;52.196;20.952;2024-03-23T09:38:24;24.05;;;14.55;;
34317;SDS011;20582;52.196;20.952;2024-03-23T09:40:50;21.27;;;13.07;;
34317;SDS011;20582;52.196;20.952;2024-03-23T09:43:18;23.48;;;14.68;;
34317;SDS011;20582;52.196;20.952;2024-03-23T09:45:44;22.38;;;13.57;;
34317;SDS011;20582;52.196;20.952;2024-03-23T09:48:10;21.92;;;12.38;;
34317;SDS011;20582;52.196;20.952;2024-03-23T09:50:40;23.20;;;12.35;;
34317;SDS011;20582;52.196;20.952;2024-03-23T09:53:06;20.55;;;12.68;;
34317;SDS011;20582;52.196;20.952;2024-03-23T09:55:32;20.52;;;12.52;;
34317;SDS011;20582;52.196;20.952;2024-03-23T09:57:59;24.00;;;12.88;;
34317;SDS011;20582;52.196;20.952;2024-03-23T10:00:25;20.35;;;11.98;;
34317;SDS011;20582;52.196;20.952;2024-03-23T10:02:51;20.02;;;11.07;;
34317;SDS011;20582;52.196;20.952;2024-03-23T10:05:19;19.23;;;10.93;;
34317;SDS011;20582;52.196;20.952;2024-03-23T10:07:46;23.27;;;12.15;;
34317;SDS011;20582;52.196;20.952;2024-03-23T10:10:12;21.70;;;11.63;;
34317;SDS011;20582;52.196;20.952;2024-03-23T10:12:43;20.50;;;11.82;;
34317;SDS011;20582;52.196;20.952;2024-03-23T10:15:20;18.77;;;11.73;;
34317;SDS011;20582;52.196;20.952;2024-03-23T10:17:46;17.38;;;11.45;;
34317;SDS011;20582;52.196;20.952;2024-03-23T10:20:13;16.10;;;11.05;;
34317;SDS011;20582;52.196;20.952;2024-03-23T10:22:39;17.58;;;11.45;;
34317;SDS011;20582;52.196;20.952;2024-03-23T10:25:08;16.98;;;11.10;;
34317;SDS011;20582;52.196;20.952;2024-03-23T10:27:34;17.75;;;11.38;;
34317;SDS011;20582;52.196;20.952;2024-03-23T10:30:07;16.40;;;11.48;;
34317;SDS011;20582;52.196;20.952;2024-03-23T10:32:34;17.77;;;11.65;;
34317;SDS011;20582;52.196;20.952;2024-03-23T10:35:16;18.35;;;11.80;;
34317;SDS011;20582;52.196;20.952;2024-03-23T10:37:49;17.77;;;11.30;;
34317;SDS011;20582;52.196;20.952;2024-03-23T10:40:15;17.83;;;11.38;;
34317;SDS011;20582;52.196;20.952;2024-03-23T10:42:41;16.98;;;11.52;;
34317;SDS011;20582;52.196;20.952;2024-03-23T10:45:08;18.05;;;11.38;;
34317;SDS011;20582;52.196;20.952;2024-03-23T10:47:34;17.92;;;10.88;;
34317;SDS011;20582;52.196;20.952;2024-03-23T10:50:01;14.70;;;10.48;;
34317;SDS011;20582;52.196;20.952;2024-03-23T10:52:27;19.23;;;10.90;;
34317;SDS011;20582;52.196;20.952;2024-03-23T10:54:53;18.02;;;10.70;;
34317;SDS011;20582;52.196;20.952;2024-03-23T10:57:23;16.98;;;10.43;;
34317;SDS011;20582;52.196;20.952;2024-03-23T10:59:50;16.23;;;10.90;;
34317;SDS011;20582;52.196;20.952;2024-03-23T11:02:19;17.48;;;10.10;;
34317;SDS011;20582;52.196;20.952;2024-03-23T11:04:45;14.60;;;9.43;;
34317;SDS011;20582;52.196;20.952;2024-03-23T11:09:50;18.23;;;11.02;;
34317;SDS011;20582;52.196;20.952;2024-03-23T11:12:18;15.10;;;9.85;;
34317;SDS011;20582;52.196;20.952;2024-03-23T11:15:05;15.05;;;9.80;;
34317;SDS011;20582;52.196;20.952;2024-03-23T11:17:31;15.18;;;10.38;;
34317;SDS011;20582;52.196;20.952;2024-03-23T11:19:58;12.80;;;8.65;;
34317;SDS011;20582;52.196;20.952;2024-03-23T11:25:15;13.57;;;9.00;;
34317;SDS011;20582;52.196;20.952;2024-03-23T11:27:42;15.52;;;8.85;;
34317;SDS011;20582;52.196;20.952;2024-03-23T11:30:10;14.60;;;9.20;;
34317;SDS011;20582;52.196;20.952;2024-03-23T11:32:36;13.57;;;8.88;;
34317;SDS011;20582;52.196;20.952;2024-03-23T11:35:02;14.23;;;9.00;;
34317;SDS011;20582;52.196;20.952;2024-03-23T11:37:28;14.73;;;9.23;;
34317;SDS011;20582;52.196;20.952;2024-03-23T11:39:56;15.70;;;9.15;;
34317;SDS011;20582;52.196;20.952;2024-03-23T11:42:22;16.10;;;8.85;;
34317;SDS011;20582;52.196;20.952;2024-03-23T11:44:48;14.10;;;8.10;;
34317;SDS011;20582;52.196;20.952;2024-03-23T11:47:14;14.23;;;8.57;;
34317;SDS011;20582;52.196;20.952;2024-03-23T11:49:40;13.82;;;7.80;;
34317;SDS011;20582;52.196;20.952;2024-03-23T11:52:06;11.73;;;7.38;;
34317;SDS011;20582;52.196;20.952;2024-03-23T11:54:32;13.57;;;8.00;;
34317;SDS011;20582;52.196;20.952;2024-03-23T12:01:59;13.07;;;7.65;;
34317;SDS011;20582;52.196;20.952;2024-03-23T12:04:29;12.00;;;7.65;;
34317;SDS011;20582;52.196;20.952;2024-03-23T12:09:40;14.77;;;8.70;;
34317;SDS011;20582;52.196;20.952;2024-03-23T12:14:42;14.38;;;8.10;;
34317;SDS011;20582;52.196;20.952;2024-03-23T12:17:17;13.30;;;6.65;;
34317;SDS011;20582;52.196;20.952;2024-03-23T12:19:43;11.63;;;6.93;;
34317;SDS011;20582;52.196;20.952;2024-03-23T12:22:10;13.27;;;8.57;;
34317;SDS011;20582;52.196;20.952;2024-03-23T12:24:36;14.43;;;8.18;;
34317;SDS011;20582;52.196;20.952;2024-03-23T12:27:04;14.30;;;8.15;;
34317;SDS011;20582;52.196;20.952;2024-03-23T12:29:31;13.20;;;7.70;;
34317;SDS011;20582;52.196;20.952;2024-03-23T12:32:00;16.63;;;8.57;;
34317;SDS011;20582;52.196;20.952;2024-03-23T12:34:27;15.45;;;8.50;;
34317;SDS011;20582;52.196;20.952;2024-03-23T12:36:53;15.23;;;9.05;;
34317;SDS011;20582;52.196;20.952;2024-03-23T12:39:19;13.68;;;7.72;;
34317;SDS011;20582;52.196;20.952;2024-03-23T12:41:48;16.23;;;8.77;;
34317;SDS011;20582;52.196;20.952;2024-03-23T12:44:15;13.50;;;8.02;;
34317;SDS011;20582;52.196;20.952;2024-03-23T12:46:42;15.07;;;8.40;;
34317;SDS011;20582;52.196;20.952;2024-03-23T12:49:08;14.98;;;8.48;;
34317;SDS011;20582;52.196;20.952;2024-03-23T12:51:34;16.67;;;8.88;;
34317;SDS011;20582;52.196;20.952;2024-03-23T12:54:03;15.48;;;8.80;;
34317;SDS011;20582;52.196;20.952;2024-03-23T12:56:29;13.88;;;8.15;;
34317;SDS011;20582;52.196;20.952;2024-03-23T12:58:55;13.95;;;8.45;;
34317;SDS011;20582;52.196;20.952;2024-03-23T13:01:25;16.02;;;8.20;;
34317;SDS011;20582;52.196;20.952;2024-03-23T13:03:51;15.68;;;8.70;;
34317;SDS011;20582;52.196;20.952;2024-03-23T13:06:18;14.77;;;8.65;;
34317;SDS011;20582;52.196;20.952;2024-03-23T13:08:49;15.75;;;8.10;;
34317;SDS011;20582;52.196;20.952;2024-03-23T13:11:15;14.23;;;8.38;;
34317;SDS011;20582;52.196;20.952;2024-03-23T13:13:43;16.70;;;8.82;;
34317;SDS011;20582;52.196;20.952;2024-03-23T13:16:11;15.13;;;8.07;;
34317;SDS011;20582;52.196;20.952;2024-03-23T13:18:40;14.60;;;8.10;;
34317;SDS011;20582;52.196;20.952;2024-03-23T13:21:06;14.52;;;8.45;;
34317;SDS011;20582;52.196;20.952;2024-03-23T13:23:33;13.32;;;8.18;;
34317;SDS011;20582;52.196;20.952;2024-03-23T13:26:00;14.93;;;8.23;;
34317;SDS011;20582;52.196;20.952;2024-03-23T13:28:28;13.25;;;8.05;;
34317;SDS011;20582;52.196;20.952;2024-03-23T13:30:54;13.65;;;8.00;;
34317;SDS011;20582;52.196;20.952;2024-03-23T13:33:20;13.02;;;7.57;;
34317;SDS011;20582;52.196;20.952;2024-03-23T13:35:53;12.27;;;8.25;;
34317;SDS011;20582;52.196;20.952;2024-03-23T13:38:20;15.43;;;8.50;;
34317;SDS011;20582;52.196;20.952;2024-03-23T13:41:04;13.93;;;8.05;;
34317;SDS011;20582;52.196;20.952;2024-03-23T13:43:31;13.10;;;7.70;;
34317;SDS011;20582;52.196;20.952;2024-03-23T13:45:58;13.05;;;7.35;;
34317;SDS011;20582;52.196;20.952;2024-03-23T13:48:25;14.07;;;8.25;;
34317;SDS011;20582;52.196;20.952;2024-03-23T13:51:00;13.63;;;6.63;;
34317;SDS011;20582;52.196;20.952;2024-03-23T13:53:29;13.77;;;7.82;;
34317;SDS011;20582;52.196;20.952;2024-03-23T13:58:24;16.30;;;7.75;;
34317;SDS011;20582;52.196;20.952;2024-03-23T14:00:50;16.85;;;8.35;;
34317;SDS011;20582;52.196;20.952;2024-03-23T14:03:17;14.45;;;8.00;;
34317;SDS011;20582;52.196;20.952;2024-03-23T14:05:45;16.13;;;9.13;;
34317;SDS011;20582;52.196;20.952;2024-03-23T14:08:15;17.13;;;9.68;;
34317;SDS011;20582;52.196;20.952;2024-03-23T14:10:41;15.65;;;9.35;;
34317;SDS011;20582;52.196;20.952;2024-03-23T14:13:08;19.25;;;9.10;;
34317;SDS011;20582;52.196;20.952;2024-03-23T14:15:34;15.65;;;8.07;;
34317;SDS011;20582;52.196;20.952;2024-03-23T14:18:01;15.82;;;8.98;;
34317;SDS011;20582;52.196;20.952;2024-03-23T14:20:28;13.80;;;8.50;;
34317;SDS011;20582;52.196;20.952;2024-03-23T14:22:54;16.17;;;8.65;;
34317;SDS011;20582;52.196;20.952;2024-03-23T14:25:21;17.13;;;9.23;;
34317;SDS011;20582;52.196;20.952;2024-03-23T14:27:48;15.00;;;9.00;;
34317;SDS011;20582;52.196;20.952;2024-03-23T14:30:14;27.27;;;14.30;;
34317;SDS011;20582;52.196;20.952;2024-03-23T14:32:41;27.60;;;15.85;;
34317;SDS011;20582;52.196;20.952;2024-03-23T14:35:07;41.45;;;25.80;;
34317;SDS011;20582;52.196;20.952;2024-03-23T14:37:36;20.70;;;11.27;;
34317;SDS011;20582;52.196;20.952;2024-03-23T14:40:03;18.52;;;9.60;;
34317;SDS011;20582;52.196;20.952;2024-03-23T14:42:29;16.75;;;9.52;;
34317;SDS011;20582;52.196;20.952;2024-03-23T14:44:57;15.20;;;9.43;;
34317;SDS011;20582;52.196;20.952;2024-03-23T14:47:26;19.08;;;11.60;;
34317;SDS011;20582;52.196;20.952;2024-03-23T14:49:52;17.98;;;10.38;;
34317;SDS011;20582;52.196;20.952;2024-03-23T14:52:18;15.52;;;9.45;;
34317;SDS011;20582;52.196;20.952;2024-03-23T14:54:45;19.00;;;10.85;;
34317;SDS011;20582;52.196;20.952;2024-03-23T14:57:15;20.75;;;11.73;;
34317;SDS011;20582;52.196;20.952;2024-03-23T14:59:41;18.45;;;11.98;;
34317;SDS011;20582;52.196;20.952;2024-03-23T15:02:07;19.50;;;11.98;;
34317;SDS011;20582;52.196;20.952;2024-03-23T15:04:34;23.67;;;13.00;;
34317;SDS011;20582;52.196;20.952;2024-03-23T15:07:01;24.58;;;13.65;;
34317;SDS011;20582;52.196;20.952;2024-03-23T15:09:27;25.55;;;14.32;;
34317;SDS011;20582;52.196;20.952;2024-03-23T15:11:53;22.52;;;13.27;;
34317;SDS011;20582;52.196;20.952;2024-03-23T15:14:20;25.15;;;14.40;;
34317;SDS011;20582;52.196;20.952;2024-03-23T15:16:47;27.52;;;16.38;;
34317;SDS011;20582;52.196;20.952;2024-03-23T15:19:14;30.58;;;15.77;;
34317;SDS011;20582;52.196;20.952;2024-03-23T15:21:43;42.88;;;19.08;;